createdAt,value
2018-11-10T00:00:47.303Z,12.40
2018-11-10T00:03:41.291Z,12.40
2018-11-10T00:09:46.144Z,12.40
2018-11-10T00:15:38.444Z,12.50
2018-11-10T00:21:02.332Z,12.50
2018-11-10T00:28:42.879Z,12.50
2018-11-10T00:31:32.044Z,12.50
2018-11-10T00:34:07.624Z,12.60
2018-11-10T00:39:20.677Z,12.70
2018-11-10T00:41:56.835Z,12.70
2018-11-10T00:44:37.494Z,12.70
2018-11-10T00:47:16.517Z,12.60
2018-11-10T00:49:51.652Z,12.60
2018-11-10T00:57:38.200Z,12.60
2018-11-10T01:00:15.453Z,12.60
2018-11-10T01:05:30.996Z,12.50
2018-11-10T01:08:28.396Z,12.50
2018-11-10T01:11:17.351Z,12.50
2018-11-10T01:14:13.732Z,12.60
2018-11-10T01:23:37.187Z,12.70
2018-11-10T01:26:24.537Z,12.80
2018-11-10T01:29:07.232Z,12.80
2018-11-10T01:31:41.904Z,12.70
2018-11-10T01:34:19.445Z,12.80
2018-11-10T01:37:02.049Z,12.80
2018-11-10T01:39:47.736Z,12.90
2018-11-10T01:42:33.470Z,12.90
2018-11-10T01:45:13.275Z,12.90
2018-11-10T01:50:33.721Z,13.00
2018-11-10T01:53:22.034Z,13.00
2018-11-10T01:56:05.585Z,13.00
2018-11-10T01:58:45.444Z,13.10
2018-11-10T02:01:25.192Z,13.10
2018-11-10T02:06:39.846Z,13.10
2018-11-10T02:09:24.418Z,13.10
2018-11-10T02:12:21.889Z,13.10
2018-11-10T02:14:53.790Z,13.10
2018-11-10T02:17:27.239Z,13.10
2018-11-10T02:19:59.601Z,13.10
2018-11-10T02:22:59.216Z,13.10
2018-11-10T02:25:44.227Z,13.20
2018-11-10T02:28:17.519Z,13.10
2018-11-10T02:30:48.339Z,13.20
2018-11-10T02:33:23.598Z,13.10
2018-11-10T02:36:18.069Z,13.10
2018-11-10T02:38:55.650Z,13.10
2018-11-10T02:41:35.695Z,13.10
2018-11-10T02:44:06.587Z,13.10
2018-11-10T02:46:50.795Z,13.10
2018-11-10T02:49:24.603Z,13.20
2018-11-10T02:51:54.839Z,13.20
2018-11-10T02:54:25.142Z,13.20
2018-11-10T02:56:56.220Z,13.20
2018-11-10T02:59:37.785Z,13.20
2018-11-10T03:02:28.242Z,13.20
2018-11-10T03:05:03.621Z,13.30
2018-11-10T03:07:46.179Z,13.30
2018-11-10T03:10:17.040Z,13.30
2018-11-10T03:12:49.075Z,13.30
2018-11-10T03:15:19.302Z,13.30
2018-11-10T03:17:49.157Z,13.40
2018-11-10T03:20:19.230Z,13.40
2018-11-10T03:22:49.131Z,13.50
2018-11-10T03:25:19.095Z,13.50
2018-11-10T03:27:49.737Z,13.50
2018-11-10T03:30:20.245Z,13.50
2018-11-10T03:32:50.641Z,13.60
2018-11-10T03:35:20.640Z,13.60
2018-11-10T03:37:50.701Z,13.70
2018-11-10T03:40:27.804Z,13.80
2018-11-10T03:43:07.925Z,13.80
2018-11-10T03:45:38.337Z,13.80
2018-11-10T03:48:21.026Z,13.80
2018-11-10T03:50:52.484Z,13.80
2018-11-10T03:53:23.010Z,13.80
2018-11-10T03:55:53.990Z,13.80
2018-11-10T03:58:36.160Z,13.80
2018-11-10T04:01:12.979Z,13.80
2018-11-10T04:03:45.062Z,13.80
2018-11-10T04:06:15.792Z,13.80
2018-11-10T04:08:45.568Z,13.80
2018-11-10T04:11:22.386Z,13.80
2018-11-10T04:13:58.482Z,13.80
2018-11-10T04:16:28.953Z,13.80
2018-11-10T04:18:59.740Z,13.80
2018-11-10T04:21:30.044Z,13.80
2018-11-10T04:23:59.912Z,13.80
2018-11-10T04:26:31.138Z,13.80
2018-11-10T04:29:10.294Z,13.80
2018-11-10T04:31:42.683Z,13.70
2018-11-10T04:34:13.683Z,13.70
2018-11-10T04:36:43.995Z,13.70
2018-11-10T04:39:15.870Z,13.70
2018-11-10T04:41:55.866Z,13.70
2018-11-10T04:44:54.516Z,13.70
2018-11-10T04:47:24.440Z,13.60
2018-11-10T04:50:16.916Z,13.60
2018-11-10T04:52:50.649Z,13.60
2018-11-10T04:55:33.539Z,13.60
2018-11-10T04:58:15.763Z,13.60
2018-11-10T05:01:16.092Z,13.60
2018-11-10T05:06:47.448Z,13.50
2018-11-10T05:09:23.018Z,13.60
2018-11-10T05:12:03.389Z,13.50
2018-11-10T05:14:33.889Z,13.50
2018-11-10T05:17:04.668Z,13.50
2018-11-10T05:19:35.516Z,13.50
2018-11-10T05:22:10.774Z,13.60
2018-11-10T05:24:45.997Z,13.60
2018-11-10T05:27:24.381Z,13.60
2018-11-10T05:29:55.073Z,13.60
2018-11-10T05:32:26.984Z,13.60
2018-11-10T05:34:57.042Z,13.50
2018-11-10T05:37:27.629Z,13.60
2018-11-10T05:40:01.839Z,13.60
2018-11-10T05:42:42.056Z,13.60
2018-11-10T05:45:17.353Z,13.60
2018-11-10T05:48:00.035Z,13.60
2018-11-10T05:50:32.099Z,13.60
2018-11-10T05:55:44.288Z,13.60
2018-11-10T05:58:18.067Z,13.50
2018-11-10T06:00:48.112Z,13.60
2018-11-10T06:03:19.206Z,13.60
2018-11-10T06:05:49.150Z,13.60
2018-11-10T06:08:21.178Z,13.60
2018-11-10T06:10:51.183Z,13.60
2018-11-10T06:13:21.133Z,13.50
2018-11-10T06:15:51.432Z,13.60
2018-11-10T06:18:22.130Z,13.60
2018-11-10T06:20:57.017Z,13.50
2018-11-10T06:23:27.756Z,13.50
2018-11-10T06:25:58.102Z,13.50
2018-11-10T06:28:28.647Z,13.50
2018-11-10T06:31:00.921Z,13.40
2018-11-10T06:33:32.388Z,13.40
2018-11-10T06:36:08.594Z,13.40
2018-11-10T06:38:53.033Z,13.30
2018-11-10T06:41:30.052Z,13.30
2018-11-10T06:44:12.138Z,13.30
2018-11-10T06:47:11.996Z,13.30
2018-11-10T06:50:00.237Z,13.40
2018-11-10T06:52:43.680Z,13.40
2018-11-10T06:55:25.578Z,13.40
2018-11-10T07:00:53.172Z,13.40
2018-11-10T07:06:39.186Z,13.30
2018-11-10T07:12:27.648Z,13.40
2018-11-10T07:15:04.772Z,13.40
2018-11-10T07:17:42.953Z,13.40
2018-11-10T07:23:23.017Z,13.40
2018-11-10T07:26:08.335Z,13.50
2018-11-10T07:28:43.122Z,13.40
2018-11-10T07:34:15.329Z,13.40
2018-11-10T07:39:53.790Z,13.40
2018-11-10T07:42:39.249Z,13.40
2018-11-10T07:45:28.049Z,13.40
2018-11-10T07:51:19.162Z,13.40
2018-11-10T07:54:08.321Z,13.40
2018-11-10T08:00:25.806Z,13.50
2018-11-10T08:08:47.876Z,13.50
2018-11-10T08:11:30.990Z,13.50
2018-11-10T08:16:59.413Z,13.60
2018-11-10T08:19:32.554Z,13.60
2018-11-10T08:27:21.821Z,13.70
2018-11-10T08:30:07.714Z,13.80
2018-11-10T08:32:50.739Z,13.80
2018-11-10T08:35:33.854Z,13.80
2018-11-10T08:41:03.626Z,13.90
2018-11-10T08:43:51.886Z,13.90
2018-11-10T08:46:31.624Z,14.00
2018-11-10T08:49:15.049Z,14.10
2018-11-10T08:52:08.781Z,14.20
2018-11-10T08:55:06.011Z,14.20
2018-11-10T08:57:51.060Z,14.30
2018-11-10T09:03:50.119Z,14.50
2018-11-10T09:06:31.259Z,14.60
2018-11-10T09:09:17.049Z,14.70
2018-11-10T09:18:04.274Z,14.90
2018-11-10T09:24:37.198Z,14.80
2018-11-10T09:27:20.009Z,14.70
2018-11-10T09:35:54.228Z,14.50
2018-11-10T09:44:13.590Z,14.20
2018-11-10T09:46:59.433Z,14.00
2018-11-10T09:49:51.530Z,13.80
2018-11-10T09:52:31.694Z,13.80
2018-11-10T09:55:13.811Z,13.80
2018-11-10T09:57:49.803Z,13.90
2018-11-10T10:00:37.812Z,13.80
2018-11-10T10:03:17.738Z,13.70
2018-11-10T10:06:01.736Z,13.70
2018-11-10T10:09:08.367Z,13.70
2018-11-10T10:11:54.335Z,13.70
2018-11-10T10:14:33.905Z,13.70
2018-11-10T10:17:09.951Z,13.70
2018-11-10T10:19:52.067Z,13.70
2018-11-10T10:25:27.187Z,13.70
2018-11-10T10:28:09.657Z,13.70
2018-11-10T10:30:51.151Z,13.70
2018-11-10T10:33:21.134Z,13.80
2018-11-10T10:35:55.524Z,13.80
2018-11-10T10:38:39.486Z,13.90
2018-11-10T10:41:13.564Z,14.00
2018-11-10T10:43:52.630Z,14.00
2018-11-10T10:46:41.840Z,14.10
2018-11-10T10:49:24.393Z,14.10
2018-11-10T10:52:02.883Z,14.20
2018-11-10T10:54:47.899Z,14.30
2018-11-10T10:57:36.111Z,14.40
2018-11-10T11:00:20.629Z,14.50
2018-11-10T11:05:09.969Z,14.60
2018-11-10T11:11:03.276Z,14.90
2018-11-10T11:22:50.206Z,15.00
2018-11-10T11:25:26.985Z,14.90
2018-11-10T11:27:58.114Z,14.80
2018-11-10T11:30:34.359Z,14.80
2018-11-10T11:33:06.555Z,14.80
2018-11-10T11:35:37.106Z,14.70
2018-11-10T11:38:09.622Z,14.60
2018-11-10T11:40:40.301Z,14.50
2018-11-10T11:43:11.609Z,14.50
2018-11-10T11:45:45.520Z,14.50
2018-11-10T11:48:20.934Z,14.50
2018-11-10T11:50:54.939Z,14.50
2018-11-10T11:53:30.841Z,14.40
2018-11-10T11:56:26.973Z,14.30
2018-11-10T11:59:02.127Z,14.30
2018-11-10T12:01:43.560Z,14.30
2018-11-10T12:04:23.603Z,14.30
2018-11-10T12:06:54.478Z,14.40
2018-11-10T12:09:37.175Z,14.40
2018-11-10T12:12:23.942Z,14.40
2018-11-10T12:15:03.464Z,14.30
2018-11-10T12:17:33.693Z,14.40
2018-11-10T12:20:17.132Z,14.40
2018-11-10T12:22:51.072Z,14.50
2018-11-10T12:25:24.526Z,14.50
2018-11-10T12:27:54.872Z,14.50
2018-11-10T12:30:27.723Z,14.50
2018-11-10T12:32:59.380Z,14.50
2018-11-10T12:35:42.441Z,14.50
2018-11-10T12:38:13.095Z,14.50
2018-11-10T12:40:44.130Z,14.50
2018-11-10T12:43:18.735Z,14.50
2018-11-10T12:45:49.537Z,14.50
2018-11-10T12:48:19.700Z,14.40
2018-11-10T12:51:07.618Z,14.50
2018-11-10T12:53:40.292Z,14.50
2018-11-10T12:56:27.342Z,14.50
2018-11-10T12:59:03.296Z,14.50
2018-11-10T13:05:14.208Z,14.60
2018-11-10T13:07:58.994Z,14.60
2018-11-10T13:10:37.865Z,14.60
2018-11-10T13:13:25.515Z,14.60
2018-11-10T13:15:56.708Z,14.70
2018-11-10T13:18:27.948Z,14.70
2018-11-10T13:21:14.199Z,14.70
2018-11-10T13:23:52.814Z,14.80
2018-11-10T13:26:29.412Z,14.80
2018-11-10T13:29:29.832Z,14.80
2018-11-10T13:32:11.477Z,14.90
2018-11-10T13:38:53.507Z,14.90
2018-11-10T14:29:55.707Z,15.20
2018-11-10T14:32:29.112Z,15.30
2018-11-10T14:35:05.849Z,15.30
2018-11-10T14:37:44.388Z,15.40
2018-11-10T14:40:19.800Z,15.50
2018-11-10T14:42:50.525Z,15.50
2018-11-10T14:45:21.587Z,15.60
2018-11-10T14:48:04.254Z,15.60
2018-11-10T14:50:46.770Z,15.60
2018-11-10T14:53:20.302Z,15.70
2018-11-10T14:56:09.689Z,15.80
2018-11-10T14:58:44.516Z,15.80
2018-11-10T15:01:25.460Z,15.80
2018-11-10T15:04:03.898Z,15.80
2018-11-10T15:06:52.314Z,15.80
2018-11-10T15:09:30.058Z,15.80
2018-11-10T15:12:02.790Z,15.80
2018-11-10T15:14:53.482Z,15.90
2018-11-10T15:17:25.077Z,15.80
2018-11-10T15:22:37.609Z,15.90
2018-11-10T15:25:20.246Z,15.80
2018-11-10T15:28:16.036Z,15.80
2018-11-10T15:30:47.935Z,15.90
2018-11-10T15:36:35.716Z,15.80
2018-11-10T15:39:23.716Z,15.80
2018-11-10T15:41:54.066Z,15.90
2018-11-10T15:47:38.932Z,15.90
2018-11-10T15:50:29.005Z,15.80
2018-11-10T15:53:05.004Z,15.70
2018-11-10T15:55:53.051Z,15.70
2018-11-10T16:01:59.641Z,15.70
2018-11-10T16:04:42.291Z,15.70
2018-11-10T16:18:37.569Z,15.60
2018-11-10T16:22:09.823Z,15.60
2018-11-10T16:26:17.276Z,15.40
2018-11-10T16:32:16.781Z,15.30
2018-11-10T16:35:00.701Z,15.20
2018-11-10T16:37:50.713Z,15.20
2018-11-10T16:43:33.514Z,15.20
2018-11-10T16:49:25.525Z,15.20
2018-11-10T16:52:19.996Z,15.30
2018-11-10T16:55:03.313Z,15.30
2018-11-10T16:57:44.227Z,15.30
2018-11-10T17:00:34.892Z,15.30
2018-11-10T17:03:39.118Z,15.30
2018-11-10T17:11:33.487Z,15.30
2018-11-10T17:14:16.868Z,15.30
2018-11-10T17:17:08.418Z,15.30
2018-11-10T17:19:42.909Z,15.30
2018-11-10T17:22:26.801Z,15.30
2018-11-10T17:24:58.464Z,15.30
2018-11-10T17:27:34.650Z,15.30
2018-11-10T17:30:08.874Z,15.30
2018-11-10T17:32:43.282Z,15.30
2018-11-10T17:35:19.040Z,15.30
2018-11-10T17:37:50.579Z,15.30
2018-11-10T17:40:26.373Z,15.40
2018-11-10T17:42:58.215Z,15.40
2018-11-10T17:45:37.506Z,15.40
2018-11-10T17:48:09.471Z,15.40
2018-11-10T17:50:46.688Z,15.40
2018-11-10T17:53:21.460Z,15.30
2018-11-10T17:55:54.363Z,15.40
2018-11-10T17:58:38.135Z,15.30
2018-11-10T18:01:10.589Z,15.20
2018-11-10T18:03:43.007Z,15.30
2018-11-10T18:06:20.984Z,15.20
2018-11-10T18:08:55.335Z,15.20
2018-11-10T18:11:34.745Z,15.20
2018-11-10T18:14:14.308Z,15.20
2018-11-10T18:16:47.177Z,15.20
2018-11-10T18:19:23.830Z,15.10
2018-11-10T18:22:20.595Z,15.10
2018-11-10T18:24:59.987Z,15.10
2018-11-10T18:27:34.444Z,15.10
2018-11-10T18:30:14.255Z,15.10
2018-11-10T18:32:56.385Z,15.20
2018-11-10T18:35:42.697Z,15.10
2018-11-10T18:38:26.917Z,15.00
2018-11-10T18:41:06.966Z,14.90
2018-11-10T18:44:00.090Z,14.90
2018-11-10T18:46:52.043Z,14.90
2018-11-10T18:49:24.760Z,14.90
2018-11-10T18:52:10.658Z,14.90
2018-11-10T18:55:01.633Z,14.80
2018-11-10T18:57:35.774Z,14.70
2018-11-10T19:00:19.963Z,14.50
2018-11-10T19:03:01.025Z,14.40
2018-11-10T19:05:36.209Z,14.30
2018-11-10T19:13:12.011Z,14.20
2018-11-10T19:18:27.990Z,14.00
2018-11-10T19:21:02.224Z,13.80
2018-11-10T19:23:47.713Z,13.80
2018-11-10T19:26:39.689Z,13.70
2018-11-10T19:29:23.633Z,13.60
2018-11-10T19:32:03.257Z,13.50
2018-11-10T19:34:41.213Z,13.50
2018-11-10T19:37:18.905Z,13.50
2018-11-10T19:40:11.582Z,13.40
2018-11-10T19:42:51.477Z,13.40
2018-11-10T19:45:29.395Z,13.40
2018-11-10T19:48:06.309Z,13.30
2018-11-10T19:50:37.172Z,13.30
2018-11-10T19:53:07.943Z,13.30
2018-11-10T19:55:39.174Z,13.30
2018-11-10T19:58:15.908Z,13.20
2018-11-10T20:06:45.023Z,13.30
2018-11-10T20:09:29.963Z,13.20
2018-11-10T20:12:07.379Z,13.20
2018-11-10T20:14:50.417Z,13.20
2018-11-10T20:17:27.191Z,13.20
2018-11-10T20:20:16.541Z,13.30
2018-11-10T20:23:30.636Z,13.20
2018-11-10T20:26:11.003Z,13.20
2018-11-10T20:32:33.721Z,13.20
2018-11-10T20:35:18.554Z,13.20
2018-11-10T20:38:00.984Z,13.20
2018-11-10T20:41:00.554Z,13.30
2018-11-10T20:43:35.828Z,13.30
2018-11-10T20:46:28.045Z,13.30
2018-11-10T20:57:18.262Z,13.20
2018-11-10T21:00:03.983Z,13.20
2018-11-10T21:02:41.125Z,13.20
2018-11-10T21:05:35.993Z,13.30
2018-11-10T21:08:15.901Z,13.20
2018-11-10T21:13:51.285Z,13.30
2018-11-10T21:16:34.342Z,13.30
2018-11-10T21:19:13.740Z,13.40
2018-11-10T21:24:48.655Z,13.40
2018-11-10T21:27:26.495Z,13.40
2018-11-10T21:30:09.458Z,13.40
2018-11-10T21:32:41.802Z,13.40
2018-11-10T21:35:16.034Z,13.40
2018-11-10T21:37:50.285Z,13.30
2018-11-10T21:40:35.070Z,13.30
2018-11-10T21:43:27.241Z,13.30
2018-11-10T21:51:49.102Z,13.20
2018-11-10T21:54:42.988Z,13.20
2018-11-10T21:57:18.620Z,13.20
2018-11-10T22:00:15.698Z,13.10
2018-11-10T22:02:52.564Z,13.00
2018-11-10T22:05:38.185Z,13.00
2018-11-10T22:11:20.719Z,13.10
2018-11-10T22:14:00.573Z,13.00
2018-11-10T22:16:33.865Z,13.00
2018-11-10T22:21:54.206Z,13.00
2018-11-10T22:27:56.419Z,13.00
2018-11-10T22:30:36.581Z,12.90
2018-11-10T22:33:16.609Z,13.00
2018-11-10T22:35:49.554Z,12.90
2018-11-10T22:38:22.815Z,12.90
2018-11-10T22:41:17.479Z,12.90
2018-11-10T22:43:53.258Z,12.90
2018-11-10T22:46:36.309Z,12.90
2018-11-10T22:49:17.120Z,12.90
2018-11-10T22:51:57.611Z,13.00
2018-11-10T22:54:53.914Z,12.90
2018-11-10T22:57:33.352Z,12.90
2018-11-10T23:00:26.517Z,12.90
2018-11-10T23:03:04.889Z,12.90
2018-11-10T23:05:50.026Z,12.90
2018-11-10T23:08:24.955Z,12.90
2018-11-10T23:11:04.985Z,12.90
2018-11-10T23:13:41.762Z,12.90
2018-11-10T23:16:20.403Z,12.80
2018-11-10T23:20:00.846Z,12.80
2018-11-10T23:23:03.518Z,12.90
2018-11-10T23:25:48.682Z,12.90
2018-11-10T23:28:28.891Z,12.90
2018-11-10T23:31:07.469Z,12.90
2018-11-10T23:33:49.552Z,12.90
2018-11-10T23:36:29.677Z,12.90
2018-11-10T23:42:14.628Z,12.80
2018-11-10T23:45:23.303Z,12.80
2018-11-10T23:48:30.447Z,12.80
2018-11-10T23:51:15.810Z,12.70
2018-11-10T23:53:53.813Z,12.70
2018-11-10T23:56:36.633Z,12.70
2018-11-10T23:59:41.552Z,12.70
